createdAt,value
2022-09-20T00:01:18.734Z,2.83
2022-09-20T00:03:48.088Z,2.17
2022-09-20T00:06:20.386Z,2.30
2022-09-20T00:08:49.146Z,2.40
2022-09-20T00:11:20.818Z,2.67
2022-09-20T00:13:50.708Z,2.50
2022-09-20T00:16:21.651Z,2.50
2022-09-20T00:18:50.658Z,2.33
2022-09-20T00:21:22.494Z,2.10
2022-09-20T00:23:50.585Z,2.17
2022-09-20T00:26:20.194Z,2.33
2022-09-20T00:28:48.402Z,2.00
2022-09-20T00:31:17.097Z,2.07
2022-09-20T00:34:02.763Z,2.30
2022-09-20T00:36:32.558Z,2.10
2022-09-20T00:39:02.547Z,2.10
2022-09-20T00:41:31.403Z,2.43
2022-09-20T00:44:00.313Z,2.33
2022-09-20T00:46:34.972Z,2.53
2022-09-20T00:49:07.929Z,2.20
2022-09-20T00:51:40.256Z,2.17
2022-09-20T00:54:11.330Z,2.63
2022-09-20T00:56:44.017Z,2.40
2022-09-20T00:59:17.166Z,2.40
2022-09-20T01:01:49.537Z,2.37
2022-09-20T01:04:21.751Z,2.47
2022-09-20T01:06:54.010Z,2.60
2022-09-20T01:09:22.264Z,2.07
2022-09-20T01:11:51.904Z,2.70
2022-09-20T01:14:22.709Z,2.40
2022-09-20T01:16:51.309Z,3.10
2022-09-20T01:19:27.127Z,2.70
2022-09-20T01:21:56.844Z,2.60
2022-09-20T01:24:31.317Z,2.30
2022-09-20T01:27:09.504Z,2.30
2022-09-20T01:29:56.637Z,2.63
2022-09-20T01:32:29.604Z,2.50
2022-09-20T01:35:01.915Z,2.73
2022-09-20T01:37:38.037Z,2.40
2022-09-20T01:40:13.661Z,2.70
2022-09-20T01:42:49.160Z,2.80
2022-09-20T01:45:23.718Z,2.50
2022-09-20T01:47:58.448Z,2.50
2022-09-20T01:50:35.185Z,2.33
2022-09-20T01:53:30.587Z,2.53
2022-09-20T01:56:38.541Z,2.40
2022-09-20T01:59:39.392Z,2.70
2022-09-20T02:02:32.010Z,2.47
2022-09-20T02:05:25.006Z,2.50
2022-09-20T02:08:47.435Z,2.60
2022-09-20T02:11:18.119Z,2.33
2022-09-20T02:14:15.797Z,2.70
2022-09-20T02:16:56.900Z,2.67
2022-09-20T02:20:02.069Z,2.53
2022-09-20T02:23:07.182Z,2.80
2022-09-20T02:25:54.211Z,2.70
2022-09-20T02:28:33.143Z,2.63
2022-09-20T02:31:12.031Z,2.53
2022-09-20T02:33:56.785Z,2.53
2022-09-20T02:36:40.224Z,2.70
2022-09-20T02:39:14.273Z,3.00
2022-09-20T02:42:00.398Z,2.60
2022-09-20T02:44:54.725Z,2.90
2022-09-20T02:47:32.577Z,2.87
2022-09-20T02:50:15.875Z,2.50
2022-09-20T02:52:58.446Z,2.73
2022-09-20T02:55:36.222Z,2.47
2022-09-20T02:58:21.954Z,2.07
2022-09-20T03:00:55.540Z,2.53
2022-09-20T03:03:35.747Z,2.70
2022-09-20T03:06:12.273Z,2.53
2022-09-20T03:08:48.388Z,2.30
2022-09-20T03:11:23.481Z,2.90
2022-09-20T03:14:11.615Z,3.00
2022-09-20T03:16:52.740Z,2.73
2022-09-20T03:19:36.652Z,2.57
2022-09-20T03:22:16.317Z,2.60
2022-09-20T03:25:00.210Z,3.10
2022-09-20T03:27:33.375Z,2.57
2022-09-20T03:30:21.060Z,2.47
2022-09-20T03:32:59.274Z,2.77
2022-09-20T03:35:40.484Z,2.80
2022-09-20T03:38:25.894Z,3.30
2022-09-20T03:41:16.358Z,3.00
2022-09-20T03:44:12.756Z,3.10
2022-09-20T03:46:46.570Z,2.93
2022-09-20T03:49:48.056Z,3.47
2022-09-20T03:52:38.832Z,3.50
2022-09-20T03:55:54.841Z,3.30
2022-09-20T03:58:37.686Z,2.80
2022-09-20T04:01:21.349Z,3.50
2022-09-20T04:03:57.376Z,2.73
2022-09-20T04:06:44.721Z,2.57
2022-09-20T04:09:32.530Z,3.40
2022-09-20T04:12:06.900Z,3.10
2022-09-20T04:14:50.066Z,3.67
2022-09-20T04:17:28.622Z,3.53
2022-09-20T04:20:03.545Z,3.10
2022-09-20T04:22:32.097Z,3.37
2022-09-20T04:25:07.925Z,3.23
2022-09-20T04:27:42.406Z,3.40
2022-09-20T04:30:19.468Z,3.40
2022-09-20T04:32:53.027Z,3.30
2022-09-20T04:35:54.314Z,3.00
2022-09-20T04:38:23.050Z,3.47
2022-09-20T04:41:16.385Z,3.77
2022-09-20T04:44:11.485Z,3.73
2022-09-20T04:47:13.394Z,3.57
2022-09-20T04:50:17.759Z,3.23
2022-09-20T04:53:15.626Z,4.03
2022-09-20T04:56:01.882Z,4.30
2022-09-20T04:58:44.691Z,4.00
2022-09-20T05:01:48.789Z,3.90
2022-09-20T05:05:24.407Z,3.77
2022-09-20T05:08:41.060Z,3.43
2022-09-20T05:11:36.531Z,3.50
2022-09-20T05:14:37.014Z,3.90
2022-09-20T05:17:21.257Z,3.80
2022-09-20T05:20:07.124Z,3.90
2022-09-20T05:23:11.845Z,3.27
2022-09-20T05:25:57.117Z,3.53
2022-09-20T05:28:34.851Z,3.53
2022-09-20T05:31:09.346Z,4.73
2022-09-20T05:33:45.256Z,4.23
2022-09-20T05:36:23.448Z,3.97
2022-09-20T05:39:02.775Z,4.83
2022-09-20T05:41:39.463Z,4.17
2022-09-20T05:44:19.657Z,3.50
2022-09-20T05:46:58.730Z,3.70
2022-09-20T05:49:42.339Z,3.63
2022-09-20T05:52:27.751Z,3.67
2022-09-20T05:55:23.253Z,3.43
2022-09-20T05:58:05.512Z,3.70
2022-09-20T06:00:39.103Z,4.03
2022-09-20T06:03:16.978Z,4.10
2022-09-20T06:05:56.520Z,4.20
2022-09-20T06:09:00.317Z,4.27
2022-09-20T06:11:48.792Z,4.27
2022-09-20T06:14:28.688Z,4.07
2022-09-20T06:17:05.995Z,4.87
2022-09-20T06:19:41.475Z,4.23
2022-09-20T06:22:17.835Z,4.20
2022-09-20T06:24:51.221Z,4.50
2022-09-20T06:27:27.092Z,4.10
2022-09-20T06:30:01.268Z,4.20
2022-09-20T06:32:30.074Z,4.30
2022-09-20T06:35:00.369Z,4.40
2022-09-20T06:38:01.385Z,5.10
2022-09-20T06:40:58.233Z,4.60
2022-09-20T06:43:30.924Z,5.50
2022-09-20T06:45:59.119Z,4.10
2022-09-20T06:48:29.848Z,4.73
2022-09-20T06:50:58.915Z,4.83
2022-09-20T06:53:31.352Z,5.60
2022-09-20T06:55:59.748Z,4.40
2022-09-20T06:58:29.546Z,4.83
2022-09-20T07:00:57.712Z,5.30
2022-09-20T07:03:25.750Z,5.20
2022-09-20T07:05:54.194Z,4.90
2022-09-20T07:08:22.197Z,5.10
2022-09-20T07:10:50.928Z,5.23
2022-09-20T07:13:20.895Z,4.73
2022-09-20T07:15:50.618Z,5.43
2022-09-20T07:18:18.686Z,5.20
2022-09-20T07:20:47.152Z,5.20
2022-09-20T07:23:15.936Z,6.23
2022-09-20T07:25:44.045Z,6.03
2022-09-20T07:28:12.147Z,5.70
2022-09-20T07:30:40.262Z,5.90
2022-09-20T07:33:10.431Z,5.57
2022-09-20T07:35:38.593Z,6.60
2022-09-20T07:38:06.600Z,6.27
2022-09-20T07:40:35.064Z,7.00
2022-09-20T07:43:03.078Z,6.30
2022-09-20T07:45:31.940Z,7.00
2022-09-20T07:48:00.123Z,6.17
2022-09-20T07:50:29.562Z,7.00
2022-09-20T07:52:58.041Z,6.40
2022-09-20T07:55:26.588Z,6.60
2022-09-20T07:57:55.584Z,7.00
2022-09-20T08:00:23.708Z,6.27
2022-09-20T08:03:00.136Z,6.20
2022-09-20T08:05:29.541Z,6.27
2022-09-20T08:07:57.559Z,6.77
2022-09-20T08:10:26.966Z,7.60
2022-09-20T08:15:43.781Z,7.00
2022-09-20T08:18:13.363Z,6.90
2022-09-20T08:20:42.739Z,7.33
2022-09-20T08:23:23.318Z,7.30
2022-09-20T08:25:52.095Z,7.17
2022-09-20T08:28:20.148Z,6.70
2022-09-20T08:30:48.281Z,6.23
2022-09-20T08:33:16.352Z,6.47
2022-09-20T08:35:49.348Z,7.43
2022-09-20T08:41:11.614Z,8.27
2022-09-20T08:43:45.520Z,6.80
2022-09-20T08:46:23.269Z,6.23
2022-09-20T08:48:53.174Z,6.40
2022-09-20T08:51:24.025Z,6.97
2022-09-20T08:53:55.298Z,7.70
2022-09-20T08:56:23.891Z,7.00
2022-09-20T08:58:53.219Z,7.43
2022-09-20T09:01:24.338Z,7.60
2022-09-20T09:03:53.094Z,7.20
2022-09-20T09:06:24.707Z,6.37
2022-09-20T09:08:53.687Z,6.33
2022-09-20T09:11:23.501Z,6.23
2022-09-20T09:13:55.165Z,6.70
2022-09-20T09:16:34.639Z,5.47
2022-09-20T09:19:33.244Z,5.90
2022-09-20T09:22:05.433Z,6.43
2022-09-20T09:24:33.627Z,6.40
2022-09-20T09:27:10.246Z,6.60
2022-09-20T09:29:52.245Z,5.90
2022-09-20T09:32:23.808Z,6.00
2022-09-20T09:34:52.200Z,5.97
2022-09-20T09:37:29.170Z,6.60
2022-09-20T09:40:17.327Z,5.80
2022-09-20T09:42:53.446Z,6.67
2022-09-20T09:45:38.718Z,5.80
2022-09-20T09:48:24.244Z,5.90
2022-09-20T09:51:10.586Z,6.10
2022-09-20T09:53:41.013Z,6.10
2022-09-20T09:56:41.880Z,6.73
2022-09-20T09:59:34.441Z,6.33
2022-09-20T10:02:13.106Z,7.03
2022-09-20T10:04:48.714Z,6.83
2022-09-20T10:07:24.991Z,6.47
2022-09-20T10:10:06.214Z,7.10
2022-09-20T10:12:51.609Z,6.90
2022-09-20T10:15:34.856Z,6.47
2022-09-20T10:18:39.862Z,6.07
2022-09-20T10:21:17.003Z,5.80
2022-09-20T10:24:03.646Z,5.00
2022-09-20T10:27:01.691Z,5.63
2022-09-20T10:29:41.859Z,5.53
2022-09-20T10:32:26.171Z,4.97
2022-09-20T10:35:19.832Z,4.60
2022-09-20T10:38:01.514Z,5.50
2022-09-20T10:40:49.520Z,4.30
2022-09-20T10:43:32.018Z,5.57
2022-09-20T10:46:31.333Z,4.00
2022-09-20T10:49:05.618Z,4.53
2022-09-20T10:51:44.580Z,4.70
2022-09-20T10:54:25.028Z,4.00
2022-09-20T10:56:59.106Z,3.80
2022-09-20T10:59:46.872Z,3.83
2022-09-20T11:02:26.595Z,3.37
2022-09-20T11:05:27.166Z,4.10
2022-09-20T11:08:04.200Z,4.80
2022-09-20T11:10:37.371Z,3.87
2022-09-20T11:13:11.869Z,4.07
2022-09-20T11:15:45.788Z,4.63
2022-09-20T11:18:23.454Z,4.30
2022-09-20T11:20:58.667Z,4.47
2022-09-20T11:23:33.199Z,4.13
2022-09-20T11:26:10.930Z,4.07
2022-09-20T11:28:43.542Z,4.13
2022-09-20T11:31:20.830Z,4.80
2022-09-20T11:33:52.332Z,4.53
2022-09-20T11:36:26.213Z,4.77
2022-09-20T11:38:58.207Z,4.40
2022-09-20T11:41:28.769Z,4.20
2022-09-20T11:44:00.424Z,4.60
2022-09-20T11:46:36.356Z,4.37
2022-09-20T11:49:09.944Z,4.00
2022-09-20T11:51:55.714Z,4.67
2022-09-20T11:55:04.397Z,4.50
2022-09-20T11:57:33.107Z,3.90
2022-09-20T12:00:04.222Z,4.03
2022-09-20T12:02:47.744Z,4.13
2022-09-20T12:05:30.505Z,4.20
2022-09-20T12:08:01.248Z,4.10
2022-09-20T12:10:34.094Z,3.83
2022-09-20T12:13:04.128Z,3.43
2022-09-20T12:15:33.973Z,3.43
2022-09-20T12:18:37.509Z,4.00
2022-09-20T12:21:18.126Z,3.90
2022-09-20T12:24:11.644Z,3.80
2022-09-20T12:26:44.794Z,3.20
2022-09-20T12:29:53.179Z,3.97
2022-09-20T12:32:56.421Z,3.57
2022-09-20T12:36:18.401Z,3.60
2022-09-20T12:39:06.359Z,3.30
2022-09-20T12:41:50.880Z,2.97
2022-09-20T12:44:29.780Z,3.20
2022-09-20T12:47:01.248Z,3.40
2022-09-20T12:50:01.637Z,3.70
2022-09-20T12:52:57.253Z,2.90
2022-09-20T12:55:40.539Z,4.03
2022-09-20T12:58:32.294Z,3.90
2022-09-20T13:01:36.985Z,3.60
2022-09-20T13:04:38.556Z,4.37
2022-09-20T13:07:34.725Z,3.77
2022-09-20T13:10:21.831Z,3.30
2022-09-20T13:12:54.562Z,3.10
2022-09-20T13:15:23.464Z,3.50
2022-09-20T13:17:54.142Z,2.83
2022-09-20T13:20:25.477Z,3.17
2022-09-20T13:22:58.296Z,2.90
2022-09-20T13:25:30.364Z,3.40
2022-09-20T13:28:07.728Z,3.50
2022-09-20T13:30:35.925Z,3.20
2022-09-20T13:33:21.712Z,3.63
2022-09-20T13:35:52.496Z,3.00
2022-09-20T13:38:22.627Z,3.30
2022-09-20T13:40:54.105Z,3.37
2022-09-20T13:43:28.780Z,3.30
2022-09-20T13:45:58.951Z,3.37
2022-09-20T13:48:28.542Z,3.40
2022-09-20T13:50:57.347Z,3.47
2022-09-20T13:53:41.095Z,3.17
2022-09-20T13:56:18.242Z,2.97
2022-09-20T13:58:46.644Z,3.20
2022-09-20T14:01:25.457Z,3.10
2022-09-20T14:03:54.426Z,3.13
2022-09-20T14:06:28.174Z,3.30
2022-09-20T14:08:58.331Z,2.90
2022-09-20T14:11:31.397Z,2.73
2022-09-20T14:14:01.934Z,2.90
2022-09-20T14:16:32.611Z,3.53
2022-09-20T14:19:01.905Z,3.13
2022-09-20T14:21:34.368Z,3.90
2022-09-20T14:24:06.276Z,3.20
2022-09-20T14:26:37.582Z,3.10
2022-09-20T14:29:30.588Z,3.30
2022-09-20T14:32:01.562Z,2.90
2022-09-20T14:34:29.988Z,3.30
2022-09-20T14:37:06.243Z,2.90
2022-09-20T14:39:37.259Z,2.80
2022-09-20T14:42:20.949Z,2.37
2022-09-20T14:44:53.413Z,2.60
2022-09-20T14:47:29.444Z,2.70
2022-09-20T14:49:59.016Z,2.30
2022-09-20T14:52:43.792Z,2.20
2022-09-20T14:55:28.238Z,2.30
2022-09-20T14:58:02.294Z,2.53
2022-09-20T15:00:30.855Z,2.17
2022-09-20T15:03:06.159Z,2.10
2022-09-20T15:05:34.682Z,2.20
2022-09-20T15:08:03.363Z,2.20
2022-09-20T15:10:31.448Z,2.20
2022-09-20T15:13:00.943Z,1.97
2022-09-20T15:15:29.074Z,2.47
2022-09-20T15:17:57.323Z,2.30
2022-09-20T15:20:25.480Z,2.63
2022-09-20T15:22:53.810Z,2.13
2022-09-20T15:25:22.291Z,2.33
2022-09-20T15:27:50.868Z,2.13
2022-09-20T15:30:21.084Z,3.10
2022-09-20T15:32:49.495Z,2.80
2022-09-20T15:35:18.046Z,2.50
2022-09-20T15:37:46.565Z,2.50
2022-09-20T15:40:15.273Z,2.60
2022-09-20T15:42:43.896Z,2.60
2022-09-20T15:45:13.358Z,3.03
2022-09-20T15:47:42.770Z,2.50
2022-09-20T15:50:11.705Z,2.57
2022-09-20T15:52:41.571Z,2.60
2022-09-20T15:55:10.969Z,2.60
2022-09-20T15:57:40.183Z,2.40
2022-09-20T16:00:09.411Z,2.40
2022-09-20T16:02:37.753Z,2.40
2022-09-20T16:05:09.954Z,2.77
2022-09-20T16:07:38.071Z,2.53
2022-09-20T16:10:06.997Z,2.93
2022-09-20T16:12:35.073Z,2.70
2022-09-20T16:15:03.306Z,2.30
2022-09-20T16:17:48.959Z,2.63
2022-09-20T16:20:18.366Z,2.50
2022-09-20T16:22:47.025Z,2.90
2022-09-20T16:25:15.091Z,2.70
2022-09-20T16:27:43.149Z,2.70
2022-09-20T16:30:12.348Z,2.83
2022-09-20T16:32:40.707Z,2.70
2022-09-20T16:35:09.295Z,2.10
2022-09-20T16:37:39.375Z,2.30
2022-09-20T16:40:11.240Z,2.43
2022-09-20T16:42:39.384Z,2.50
2022-09-20T16:45:09.586Z,2.10
2022-09-20T16:47:41.056Z,2.30
2022-09-20T16:50:09.899Z,2.30
2022-09-20T16:52:39.870Z,2.20
2022-09-20T16:55:10.973Z,2.10
2022-09-20T16:57:39.030Z,2.30
2022-09-20T17:00:08.728Z,2.20
2022-09-20T17:02:37.094Z,2.17
2022-09-20T17:05:06.462Z,2.50
2022-09-20T17:07:34.513Z,1.90
2022-09-20T17:10:03.992Z,2.17
2022-09-20T17:12:34.079Z,2.23
2022-09-20T17:15:02.130Z,2.23
2022-09-20T17:17:30.335Z,2.17
2022-09-20T17:19:58.408Z,2.30
2022-09-20T17:22:26.534Z,2.33
2022-09-20T17:24:54.780Z,2.20
2022-09-20T17:27:24.339Z,2.30
2022-09-20T17:29:52.377Z,2.73
2022-09-20T17:32:20.800Z,2.40
2022-09-20T17:34:49.491Z,2.70
2022-09-20T17:37:17.513Z,2.50
2022-09-20T17:39:45.498Z,2.40
2022-09-20T17:42:13.528Z,2.30
2022-09-20T17:44:42.928Z,2.47
2022-09-20T17:47:10.971Z,2.20
2022-09-20T17:49:40.637Z,2.20
2022-09-20T17:52:08.832Z,2.30
2022-09-20T17:54:36.937Z,2.33
2022-09-20T17:57:05.555Z,2.40
2022-09-20T17:59:34.408Z,2.27
2022-09-20T18:02:03.858Z,2.53
2022-09-20T18:04:32.254Z,2.90
2022-09-20T18:07:01.676Z,2.50
2022-09-20T18:09:29.712Z,2.53
2022-09-20T18:11:58.010Z,2.80
2022-09-20T18:14:31.195Z,2.60
2022-09-20T18:17:02.117Z,3.00
2022-09-20T18:19:34.156Z,2.70
2022-09-20T18:22:02.815Z,2.50
2022-09-20T18:24:31.446Z,2.80
2022-09-20T18:27:00.555Z,2.60
2022-09-20T18:29:29.253Z,2.70
2022-09-20T18:31:59.653Z,2.50
2022-09-20T18:34:31.232Z,2.90
2022-09-20T18:37:01.607Z,2.57
2022-09-20T18:39:32.555Z,2.50
2022-09-20T18:42:01.265Z,2.60
2022-09-20T18:44:32.295Z,2.43
2022-09-20T18:47:03.723Z,2.40
2022-09-20T18:49:32.225Z,2.40
2022-09-20T18:52:02.204Z,2.60
2022-09-20T18:54:33.299Z,2.17
2022-09-20T18:57:02.891Z,2.30
2022-09-20T18:59:31.403Z,2.13
2022-09-20T19:02:21.331Z,2.43
2022-09-20T19:05:14.334Z,2.30
2022-09-20T19:07:54.361Z,2.07
2022-09-20T19:10:27.861Z,1.90
2022-09-20T19:13:03.678Z,2.00
2022-09-20T19:15:44.646Z,1.70
2022-09-20T19:18:40.106Z,1.70
2022-09-20T19:21:16.264Z,2.10
2022-09-20T19:24:05.863Z,1.60
2022-09-20T19:26:38.639Z,2.00
2022-09-20T19:29:19.706Z,1.90
2022-09-20T19:31:49.585Z,2.10
2022-09-20T19:34:21.389Z,2.13
2022-09-20T19:37:03.791Z,1.97
2022-09-20T19:39:44.252Z,1.90
2022-09-20T19:42:22.067Z,1.73
2022-09-20T19:45:03.680Z,2.10
2022-09-20T19:47:43.546Z,1.90
2022-09-20T19:50:16.931Z,1.97
2022-09-20T19:52:45.685Z,2.00
2022-09-20T19:55:16.626Z,2.00
2022-09-20T19:57:47.021Z,1.80
2022-09-20T20:00:17.604Z,2.03
2022-09-20T20:02:47.043Z,1.90
2022-09-20T20:05:17.112Z,2.10
2022-09-20T20:07:51.050Z,1.80
2022-09-20T20:10:28.088Z,2.10
2022-09-20T20:13:02.324Z,2.03
2022-09-20T20:15:44.611Z,2.00
2022-09-20T20:18:24.714Z,1.80
2022-09-20T20:20:55.142Z,2.30
2022-09-20T20:23:43.662Z,2.33
2022-09-20T20:26:20.578Z,2.10
2022-09-20T20:28:48.993Z,2.37
2022-09-20T20:31:17.327Z,2.40
2022-09-20T20:33:45.720Z,2.40
2022-09-20T20:36:13.815Z,2.53
2022-09-20T20:38:46.264Z,2.40
2022-09-20T20:41:18.496Z,2.70
2022-09-20T20:43:47.888Z,2.70
2022-09-20T20:46:18.779Z,3.10
2022-09-20T20:48:47.788Z,2.73
2022-09-20T20:51:17.900Z,2.57
2022-09-20T20:53:47.784Z,2.83
2022-09-20T20:56:19.086Z,2.77
2022-09-20T20:58:48.866Z,3.00
2022-09-20T21:01:19.576Z,2.60
2022-09-20T21:03:49.279Z,2.73
2022-09-20T21:06:17.627Z,2.90
2022-09-20T21:08:49.550Z,2.60
2022-09-20T21:11:23.373Z,2.60
2022-09-20T21:13:52.139Z,3.00
2022-09-20T21:16:22.910Z,3.67
2022-09-20T21:18:51.855Z,3.20
2022-09-20T21:21:21.903Z,2.50
2022-09-20T21:23:51.585Z,2.90
2022-09-20T21:26:22.329Z,2.97
2022-09-20T21:28:53.049Z,3.30
2022-09-20T21:31:23.833Z,3.17
2022-09-20T21:33:52.220Z,3.50
2022-09-20T21:36:21.709Z,3.97
2022-09-20T21:38:49.958Z,3.90
2022-09-20T21:41:22.344Z,3.37
2022-09-20T21:43:53.202Z,4.03
2022-09-20T21:46:23.362Z,3.90
2022-09-20T21:48:51.677Z,3.80
2022-09-20T21:51:21.392Z,3.93
2022-09-20T21:53:50.350Z,4.60
2022-09-20T21:56:19.772Z,4.83
2022-09-20T21:58:48.208Z,4.43
2022-09-20T22:01:18.400Z,4.87
2022-09-20T22:03:47.905Z,5.20
2022-09-20T22:06:17.656Z,5.60
2022-09-20T22:08:48.581Z,5.93
2022-09-20T22:11:17.544Z,4.80
2022-09-20T22:13:49.673Z,4.73
2022-09-20T22:16:19.847Z,4.50
2022-09-20T22:18:48.472Z,4.50
2022-09-20T22:21:19.381Z,4.57
2022-09-20T22:23:50.435Z,4.23
2022-09-20T22:26:20.087Z,4.57
2022-09-20T22:28:50.178Z,4.40
2022-09-20T22:31:20.085Z,4.00
2022-09-20T22:33:50.049Z,4.57
2022-09-20T22:36:20.100Z,4.30
2022-09-20T22:38:48.700Z,4.10
2022-09-20T22:41:18.166Z,3.80
2022-09-20T22:43:46.463Z,3.90
2022-09-20T22:46:17.850Z,3.70
2022-09-20T22:48:46.436Z,3.43
2022-09-20T22:51:16.622Z,3.70
2022-09-20T22:53:45.760Z,3.50
2022-09-20T22:56:15.950Z,3.77
2022-09-20T22:58:45.894Z,4.17
2022-09-20T23:01:16.957Z,3.63
2022-09-20T23:03:47.473Z,3.63
2022-09-20T23:06:17.297Z,3.40
2022-09-20T23:08:45.389Z,3.87
2022-09-20T23:11:15.300Z,3.57
2022-09-20T23:13:43.724Z,3.90
2022-09-20T23:16:13.582Z,4.00
2022-09-20T23:18:43.200Z,3.53
2022-09-20T23:21:11.251Z,3.50
2022-09-20T23:23:39.925Z,4.17
2022-09-20T23:26:10.549Z,4.10
2022-09-20T23:28:40.124Z,3.90
2022-09-20T23:31:09.999Z,3.93
2022-09-20T23:33:38.366Z,3.40
2022-09-20T23:36:10.198Z,3.90
2022-09-20T23:38:38.360Z,4.00
2022-09-20T23:41:07.491Z,3.50
2022-09-20T23:43:36.582Z,4.07
2022-09-20T23:46:06.009Z,3.60
2022-09-20T23:48:36.065Z,3.87
2022-09-20T23:51:04.703Z,4.23
2022-09-20T23:53:34.520Z,4.20
2022-09-20T23:56:03.125Z,4.03
2022-09-20T23:58:31.140Z,4.00
